Time;durP1;ratioP1;P1;durP2;ratioP2;P2;SDS_P1;SDS_P2;PMS_P1;PMS_P2;Temp;Humidity;BMP_temperature;BMP_pressure;BME280_temperature;BME280_humidity;BME280_pressure;Samples;Min_cycle;Max_cycle;Signal;HPM_P1;HPM_P2
2022/01/24 00:00:21;;;;;;;38.38;23.98;;;6.20;99.80;;;;;;5032985;28;20104;-59
2022/01/24 00:02:46;;;;;;;39.45;25.13;;;6.20;99.10;;;;;;5051044;28;20052;-59
2022/01/24 00:05:13;;;;;;;35.47;22.75;;;6.20;98.30;;;;;;5056492;28;20469;-59
2022/01/24 00:07:38;;;;;;;34.08;22.00;;;6.10;97.80;;;;;;5053649;28;20021;-59
2022/01/24 00:10:08;;;;;;;37.50;22.58;;;6.10;97.80;;;;;;5041876;28;20021;-59
2022/01/24 00:13:30;;;;;;;29.77;18.50;;;6.10;97.20;;;;;;5056342;28;20484;-59
2022/01/24 00:15:51;;;;;;;30.45;19.52;;;6.10;96.90;;;;;;5051855;28;20083;-59
2022/01/24 00:18:25;;;;;;;37.88;21.63;;;6.10;96.10;;;;;;5056503;28;20030;-59
2022/01/24 00:29:03;;;;;;;33.92;20.55;;;6.00;95.90;;;;;;5055127;28;20060;-59
2022/01/24 00:31:28;;;;;;;34.90;22.25;;;6.00;96.10;;;;;;5052228;28;20028;-59
2022/01/24 00:33:54;;;;;;;32.53;20.08;;;6.00;96.30;;;;;;5052908;28;20108;-59
2022/01/24 00:36:19;;;;;;;26.88;17.23;;;6.10;96.50;;;;;;5050621;28;20400;-59
2022/01/24 00:38:45;;;;;;;29.23;18.60;;;6.10;96.90;;;;;;5050463;28;20458;-59
2022/01/24 00:41:14;;;;;;;30.52;18.67;;;6.20;96.70;;;;;;5058225;28;20112;-59
2022/01/24 00:46:48;;;;;;;27.67;18.10;;;6.20;96.90;;;;;;5044099;28;20079;-59
2022/01/24 00:54:43;;;;;;;40.97;24.92;;;6.20;96.60;;;;;;5052971;28;20387;-59
2022/01/24 00:57:09;;;;;;;34.75;23.08;;;6.20;96.30;;;;;;5049628;28;20055;-59
2022/01/24 00:59:34;;;;;;;37.28;23.90;;;6.20;96.20;;;;;;5049698;28;20405;-59
2022/01/24 01:02:00;;;;;;;40.03;26.73;;;6.10;96.20;;;;;;5041651;28;20021;-59
2022/01/24 01:04:34;;;;;;;43.05;28.17;;;6.10;96.40;;;;;;5054856;28;20032;-59
2022/01/24 01:07:05;;;;;;;43.65;28.02;;;6.10;95.90;;;;;;5034463;28;20020;-60
2022/01/24 01:20:31;;;;;;;45.63;28.90;;;5.90;95.80;;;;;;5054815;28;20547;-59
2022/01/24 01:22:57;;;;;;;38.90;27.40;;;5.90;95.80;;;;;;5038944;28;20047;-59
2022/01/24 01:25:22;;;;;;;38.67;26.90;;;5.90;95.90;;;;;;5057667;28;20196;-59
2022/01/24 01:27:50;;;;;;;39.75;25.95;;;5.90;96.10;;;;;;5054469;28;20477;-59
2022/01/24 01:30:21;;;;;;;30.75;20.92;;;5.90;96.20;;;;;;5039774;28;20116;-59
2022/01/24 01:38:41;;;;;;;37.00;23.88;;;6.10;96.60;;;;;;5006946;28;20437;-59
2022/01/24 01:55:15;;;;;;;38.28;24.80;;;6.00;96.20;;;;;;5012782;28;21228;-59
2022/01/24 01:57:40;;;;;;;36.45;23.98;;;6.00;96.40;;;;;;5012194;28;20133;-59
2022/01/24 02:00:08;;;;;;;33.65;22.55;;;6.00;96.40;;;;;;5038474;28;20037;-59
2022/01/24 02:02:34;;;;;;;41.70;27.15;;;6.00;96.50;;;;;;5056734;28;20446;-59
2022/01/24 02:04:59;;;;;;;39.50;25.45;;;6.00;96.30;;;;;;5056967;28;20099;-59
2022/01/24 02:07:25;;;;;;;37.65;23.92;;;6.00;96.20;;;;;;5051435;28;20021;-59
2022/01/24 02:09:50;;;;;;;35.72;24.17;;;5.90;96.30;;;;;;5054206;28;20025;-59
2022/01/24 02:12:18;;;;;;;33.42;24.25;;;5.90;96.20;;;;;;5054337;28;20129;-59
2022/01/24 02:14:51;;;;;;;39.30;26.90;;;5.90;96.20;;;;;;5039208;28;20422;-59
2022/01/24 02:17:24;;;;;;;36.05;24.90;;;5.90;96.10;;;;;;5049810;28;20155;-59
2022/01/24 02:23:14;;;;;;;36.72;25.08;;;5.80;96.40;;;;;;4999308;28;20225;-59
2022/01/24 02:25:37;;;;;;;32.60;22.83;;;5.80;96.30;;;;;;5049636;28;20037;-59
2022/01/24 02:28:04;;;;;;;32.20;22.48;;;5.80;96.50;;;;;;5055634;28;20021;-59
2022/01/24 02:33:14;;;;;;;31.60;22.15;;;5.90;96.70;;;;;;5053944;28;20035;-59
2022/01/24 02:35:39;;;;;;;38.03;24.80;;;5.90;96.60;;;;;;5056052;28;20112;-59
2022/01/24 02:38:16;;;;;;;34.28;23.15;;;5.90;96.40;;;;;;5052181;28;20032;-59
2022/01/24 02:40:42;;;;;;;38.25;26.30;;;5.90;96.40;;;;;;5031652;28;20036;-60
2022/01/24 02:48:23;;;;;;;28.65;20.15;;;6.00;96.30;;;;;;5054775;28;20078;-59
2022/01/24 02:48:52;;;;;;;21.15;15.73;;;6.00;96.40;;;;;;5053546;28;20105;-59
2022/01/24 02:51:45;;;;;;;23.23;16.13;;;6.00;96.50;;;;;;5052243;28;20481;-59
2022/01/24 02:54:31;;;;;;;23.63;15.18;;;6.10;96.60;;;;;;5050893;28;20154;-59
2022/01/24 02:56:57;;;;;;;22.98;16.15;;;6.10;96.50;;;;;;5053555;28;20029;-59
2022/01/24 02:59:24;;;;;;;29.85;19.42;;;6.10;96.50;;;;;;5038634;28;20455;-59
2022/01/24 03:01:50;;;;;;;29.70;21.33;;;6.10;96.40;;;;;;5042496;28;20029;-59
2022/01/24 03:04:16;;;;;;;33.80;23.35;;;6.10;96.20;;;;;;5042238;28;20021;-60
2022/01/24 03:06:42;;;;;;;32.10;23.08;;;6.10;95.80;;;;;;5042196;28;20033;-59
2022/01/24 03:09:08;;;;;;;30.58;21.10;;;6.00;95.80;;;;;;5042278;28;20027;-59
2022/01/24 03:14:20;;;;;;;31.08;19.80;;;6.00;95.80;;;;;;5060057;28;20058;-59
2022/01/24 03:16:46;;;;;;;29.70;19.92;;;5.90;94.90;;;;;;5057433;28;20028;-59
2022/01/24 03:19:13;;;;;;;25.17;17.60;;;5.90;95.10;;;;;;5042203;28;20029;-59
2022/01/24 03:21:38;;;;;;;23.08;16.92;;;5.90;95.30;;;;;;5061699;28;20066;-59
2022/01/24 03:24:09;;;;;;;23.20;16.65;;;5.90;95.40;;;;;;5044754;28;20441;-59
2022/01/24 03:26:35;;;;;;;21.25;14.70;;;5.90;95.50;;;;;;5044378;28;20029;-59
2022/01/24 03:29:00;;;;;;;31.08;22.02;;;6.00;95.60;;;;;;5038467;28;20483;-60
2022/01/24 03:31:26;;;;;;;27.55;19.35;;;6.00;95.00;;;;;;5068532;28;20028;-59
2022/01/24 03:33:51;;;;;;;29.02;20.75;;;5.90;94.90;;;;;;5065669;28;20071;-59
2022/01/24 03:36:17;;;;;;;28.15;20.10;;;5.90;95.00;;;;;;5041590;28;20040;-59
2022/01/24 03:38:42;;;;;;;24.98;17.67;;;5.90;95.20;;;;;;5053511;28;20025;-59
2022/01/24 03:41:08;;;;;;;22.90;15.90;;;5.90;95.30;;;;;;5044449;28;20048;-59
2022/01/24 03:43:34;;;;;;;23.30;15.45;;;5.90;95.50;;;;;;5068254;28;20029;-59
2022/01/24 03:48:39;;;;;;;19.27;13.35;;;6.00;95.70;;;;;;5058543;28;20025;-59
2022/01/24 03:51:06;;;;;;;16.88;12.23;;;6.00;95.70;;;;;;5037260;28;20029;-59
2022/01/24 03:53:32;;;;;;;18.10;12.00;;;6.00;95.80;;;;;;5038701;28;20463;-59
2022/01/24 03:55:57;;;;;;;20.90;14.13;;;6.10;95.90;;;;;;5060483;28;20436;-59
2022/01/24 03:58:22;;;;;;;24.65;18.08;;;6.00;95.90;;;;;;5052596;28;20024;-60
2022/01/24 04:00:48;;;;;;;26.70;18.33;;;6.00;95.70;;;;;;5061738;28;20542;-59
2022/01/24 04:03:14;;;;;;;23.17;16.55;;;5.90;95.80;;;;;;5053505;28;20029;-59
2022/01/24 04:05:41;;;;;;;21.55;14.68;;;5.90;95.80;;;;;;5053676;28;20092;-60
2022/01/24 04:08:06;;;;;;;21.23;13.73;;;5.90;96.00;;;;;;5053241;28;20051;-59
2022/01/24 04:10:42;;;;;;;19.70;13.00;;;5.90;96.10;;;;;;5037911;28;20384;-59
2022/01/24 04:13:22;;;;;;;19.77;13.18;;;5.90;96.20;;;;;;5053723;28;20025;-59
2022/01/24 04:16:09;;;;;;;;;;;6.00;96.50;;;;;;5053964;28;20048;-59
2022/01/24 04:18:58;;;;;;;19.13;11.55;;;5.90;96.30;;;;;;5053215;28;20426;-59
2022/01/24 04:21:33;;;;;;;16.95;11.30;;;5.90;96.40;;;;;;5052550;28;20031;-59
2022/01/24 04:26:28;;;;;;;21.80;14.68;;;5.90;96.20;;;;;;5052858;28;20036;-59
2022/01/24 04:29:02;;;;;;;18.40;12.93;;;6.00;96.30;;;;;;5050312;28;20068;-59
2022/01/24 04:31:28;;;;;;;18.63;12.77;;;6.00;96.30;;;;;;5055690;28;20123;-59
2022/01/24 04:33:54;;;;;;;17.38;11.93;;;6.00;96.30;;;;;;5050252;28;20021;-59
2022/01/24 04:36:20;;;;;;;17.05;11.93;;;6.00;96.30;;;;;;5055842;28;20468;-59
2022/01/24 04:38:47;;;;;;;22.55;15.32;;;6.00;96.30;;;;;;5054769;28;20035;-59
2022/01/24 04:46:47;;;;;;;28.80;18.63;;;5.90;95.60;;;;;;5053094;28;20129;-59
2022/01/24 04:55:10;;;;;;;19.30;13.32;;;5.80;95.70;;;;;;5052636;28;20056;-59
2022/01/24 04:57:36;;;;;;;15.68;11.52;;;5.80;95.80;;;;;;5037403;28;20059;-59
2022/01/24 05:00:05;;;;;;;22.52;14.10;;;5.90;95.90;;;;;;5049710;28;20025;-59
2022/01/24 05:02:31;;;;;;;23.07;15.40;;;5.90;95.80;;;;;;5032092;28;20492;-59
2022/01/24 05:04:56;;;;;;;19.88;13.18;;;5.90;95.80;;;;;;5058242;28;20017;-59
2022/01/24 05:07:23;;;;;;;21.48;14.05;;;5.90;95.80;;;;;;5049782;28;20025;-59
2022/01/24 05:25:43;;;;;;;22.48;16.20;;;5.70;95.40;;;;;;5055419;28;20028;-59
2022/01/24 05:28:08;;;;;;;25.90;18.05;;;5.70;95.40;;;;;;5060929;28;20044;-60
2022/01/24 05:30:34;;;;;;;24.13;16.55;;;5.60;95.50;;;;;;5054736;28;20040;-59
2022/01/24 05:32:59;;;;;;;23.50;15.85;;;5.60;95.70;;;;;;5054774;28;20045;-59
2022/01/24 05:35:25;;;;;;;20.38;14.05;;;5.60;95.80;;;;;;5057463;28;20083;-59
2022/01/24 05:37:50;;;;;;;19.40;13.68;;;5.60;95.90;;;;;;5055795;28;20020;-59
2022/01/24 05:40:16;;;;;;;23.30;15.77;;;5.70;95.90;;;;;;5049143;28;20332;-59
2022/01/24 05:42:42;;;;;;;24.35;16.80;;;5.60;95.90;;;;;;5054396;28;20036;-59
2022/01/24 05:45:08;;;;;;;25.80;17.25;;;5.60;95.90;;;;;;5051807;28;20104;-59
2022/01/24 05:47:33;;;;;;;22.52;15.55;;;5.50;96.00;;;;;;5057624;28;20017;-59
2022/01/24 05:49:59;;;;;;;24.40;16.83;;;5.50;96.20;;;;;;5040398;28;20526;-59
2022/01/24 05:52:25;;;;;;;25.75;16.85;;;5.50;96.40;;;;;;5052790;28;20049;-59
2022/01/24 05:54:54;;;;;;;23.88;15.98;;;5.50;96.50;;;;;;5056710;28;20036;-59
2022/01/24 05:57:40;;;;;;;21.02;14.30;;;5.40;96.60;;;;;;5051311;28;20039;-59
2022/01/24 06:00:09;;;;;;;24.65;14.65;;;5.40;96.70;;;;;;5053772;28;20067;-59
2022/01/24 06:02:34;;;;;;;26.05;16.63;;;5.50;96.70;;;;;;5036417;28;20032;-59
2022/01/24 06:05:00;;;;;;;21.55;15.30;;;5.40;96.70;;;;;;5039487;28;20021;-59
2022/01/24 06:07:25;;;;;;;19.13;12.88;;;5.40;96.80;;;;;;5045832;28;20043;-59
2022/01/24 06:09:50;;;;;;;16.58;11.40;;;5.50;96.90;;;;;;5033873;28;20024;-59
2022/01/24 06:12:16;;;;;;;14.95;10.50;;;5.50;96.90;;;;;;5049055;28;20629;-59
2022/01/24 06:14:42;;;;;;;15.60;10.27;;;5.60;96.90;;;;;;5033078;28;20022;-59
2022/01/24 06:17:08;;;;;;;19.27;13.32;;;5.60;96.90;;;;;;5033828;28;20021;-59
2022/01/24 06:19:33;;;;;;;19.85;13.00;;;5.60;96.80;;;;;;5042788;28;20472;-59
2022/01/24 06:21:59;;;;;;;22.88;15.50;;;5.70;96.80;;;;;;5072170;28;20040;-59
2022/01/24 06:24:24;;;;;;;21.45;14.45;;;5.60;96.70;;;;;;5071808;28;20060;-59
2022/01/24 06:26:50;;;;;;;22.77;15.45;;;5.50;96.80;;;;;;5072371;28;20028;-59
2022/01/24 06:29:16;;;;;;;25.30;15.32;;;5.50;96.70;;;;;;5072266;28;20048;-59
2022/01/24 06:31:41;;;;;;;20.88;14.82;;;5.50;97.10;;;;;;5055062;28;20076;-59
2022/01/24 06:34:07;;;;;;;20.52;14.18;;;5.40;96.90;;;;;;5058173;28;20135;-59
2022/01/24 06:39:35;;;;;;;22.88;15.10;;;5.40;97.00;;;;;;5076259;28;20028;-59
2022/01/24 06:42:13;;;;;;;22.92;15.88;;;5.40;97.00;;;;;;5076020;28;20029;-59
2022/01/24 06:44:39;;;;;;;23.75;15.60;;;5.30;97.00;;;;;;5058442;28;20040;-59
2022/01/24 06:47:05;;;;;;;22.45;15.60;;;5.30;97.20;;;;;;5076412;28;20055;-59
2022/01/24 06:52:36;;;;;;;22.65;15.05;;;5.20;97.20;;;;;;5076617;28;20024;-59
2022/01/24 06:55:03;;;;;;;23.02;13.40;;;5.20;97.40;;;;;;5076227;28;20120;-59
2022/01/24 06:57:29;;;;;;;20.80;13.85;;;5.30;97.50;;;;;;5075868;28;20036;-59
2022/01/24 06:59:54;;;;;;;22.33;14.93;;;5.30;97.50;;;;;;5076162;28;20027;-60
2022/01/24 07:02:33;;;;;;;23.73;15.00;;;5.20;97.40;;;;;;5076022;28;20032;-60
2022/01/24 07:04:58;;;;;;;21.10;14.13;;;5.20;97.50;;;;;;5058030;28;20025;-59
2022/01/24 07:07:24;;;;;;;22.80;15.13;;;5.20;97.70;;;;;;5076044;28;20029;-59
2022/01/24 07:09:49;;;;;;;20.52;13.68;;;5.10;97.80;;;;;;5057856;28;20033;-59
2022/01/24 07:12:15;;;;;;;19.90;13.85;;;5.10;97.90;;;;;;5075858;28;20096;-59
2022/01/24 07:15:06;;;;;;;;;;;;;;;;;;;;;
2022/01/24 07:17:56;;;;;;;18.95;12.60;;;5.20;98.00;;;;;;5075739;28;20050;-59
2022/01/24 07:20:17;;;;;;;16.33;10.82;;;5.20;98.00;;;;;;5075554;28;20120;-59
2022/01/24 07:22:43;;;;;;;16.35;11.02;;;5.20;98.10;;;;;;5075560;28;20100;-59
2022/01/24 07:25:09;;;;;;;15.88;10.73;;;5.30;98.00;;;;;;5075578;28;20472;-59
2022/01/24 07:27:34;;;;;;;15.20;9.15;;;5.30;98.00;;;;;;5057410;28;20074;-59
2022/01/24 07:30:01;;;;;;;15.82;11.68;;;5.40;98.00;;;;;;5072564;28;20127;-59
2022/01/24 07:32:28;;;;;;;16.75;11.68;;;5.40;98.00;;;;;;5055623;28;20028;-59
2022/01/24 07:34:54;;;;;;;16.55;11.25;;;5.40;98.00;;;;;;5061957;28;20027;-59
2022/01/24 07:37:21;;;;;;;17.80;11.85;;;5.40;97.90;;;;;;5074251;28;20021;-59
2022/01/24 07:39:47;;;;;;;17.73;11.50;;;5.40;97.90;;;;;;5071400;28;20108;-59
2022/01/24 07:42:40;;;;;;;14.30;8.98;;;5.40;97.90;;;;;;5074045;28;20525;-59
2022/01/24 07:45:06;;;;;;;16.73;11.13;;;5.40;98.00;;;;;;5072783;28;20024;-59
2022/01/24 07:47:44;;;;;;;;;;;;;;;;;;;;;
2022/01/24 07:50:40;;;;;;;;;;;;;;;;;;;;;
2022/01/24 07:53:07;;;;;;;17.08;11.02;;;5.40;98.00;;;;;;5074096;28;20032;-59
2022/01/24 07:55:33;;;;;;;17.48;11.95;;;5.40;98.00;;;;;;5073946;28;20036;-59
2022/01/24 07:57:59;;;;;;;16.15;11.80;;;5.40;98.00;;;;;;5052783;28;20384;-59
2022/01/24 08:00:25;;;;;;;21.17;13.45;;;5.30;98.00;;;;;;5073097;28;20027;-59
2022/01/24 08:03:08;;;;;;;19.35;12.88;;;5.30;97.90;;;;;;5055823;28;20086;-59
2022/01/24 08:05:57;;;;;;;17.63;12.25;;;5.30;97.90;;;;;;5038683;28;20032;-59
2022/01/24 08:08:22;;;;;;;17.52;12.73;;;5.20;98.00;;;;;;5062714;28;20036;-59
2022/01/24 08:10:48;;;;;;;17.90;12.50;;;5.10;98.00;;;;;;5068589;28;20020;-59
2022/01/24 08:13:14;;;;;;;16.63;11.18;;;5.10;98.10;;;;;;5052490;28;20111;-59
2022/01/24 08:15:40;;;;;;;17.20;11.82;;;5.20;98.20;;;;;;5054017;28;20033;-59
2022/01/24 08:18:06;;;;;;;14.50;10.40;;;5.20;98.20;;;;;;5052304;28;20099;-59
2022/01/24 08:20:32;;;;;;;16.83;10.80;;;5.20;98.20;;;;;;5067229;28;20111;-59
2022/01/24 08:22:58;;;;;;;17.90;12.13;;;5.20;98.20;;;;;;5070696;28;20044;-59
2022/01/24 08:25:23;;;;;;;18.92;12.95;;;5.20;98.20;;;;;;5051347;28;20492;-59
2022/01/24 08:27:49;;;;;;;16.90;11.55;;;5.20;98.40;;;;;;5046823;28;20472;-59
2022/01/24 08:30:42;;;;;;;17.85;11.90;;;5.20;98.50;;;;;;5056091;28;20040;-59
2022/01/24 08:33:07;;;;;;;16.60;12.68;;;5.10;98.70;;;;;;5073635;28;20064;-59
2022/01/24 08:35:32;;;;;;;17.15;12.02;;;5.10;98.50;;;;;;5073346;28;20020;-59
2022/01/24 08:37:58;;;;;;;16.85;12.35;;;5.10;98.50;;;;;;5073980;28;20025;-59
2022/01/24 08:40:39;;;;;;;18.38;11.65;;;5.00;98.60;;;;;;5085819;28;20024;-59
2022/01/24 08:46:40;;;;;;;19.70;12.73;;;5.00;98.80;;;;;;5021317;28;20041;-59
2022/01/24 08:55:34;;;;;;;18.13;12.93;;;4.90;99.20;;;;;;5051162;28;20035;-59
2022/01/24 08:58:03;;;;;;;17.60;12.52;;;4.90;99.20;;;;;;5073610;28;20060;-59
2022/01/24 09:00:29;;;;;;;19.83;12.23;;;4.90;99.20;;;;;;5073507;28;20031;-59
2022/01/24 09:02:54;;;;;;;17.70;11.63;;;4.90;99.30;;;;;;5073619;28;20116;-59
2022/01/24 09:05:24;;;;;;;15.73;11.18;;;4.90;99.20;;;;;;5055707;28;20028;-59
2022/01/24 09:07:50;;;;;;;16.05;12.05;;;4.90;99.10;;;;;;5055371;28;20036;-59
2022/01/24 09:10:16;;;;;;;16.45;11.63;;;4.90;99.00;;;;;;5073255;28;20035;-59
2022/01/24 09:12:42;;;;;;;15.90;11.23;;;4.90;98.90;;;;;;5073525;28;20033;-59
2022/01/24 09:15:19;;;;;;;14.98;11.35;;;4.90;99.00;;;;;;5070705;28;20396;-59
2022/01/24 09:18:04;;;;;;;15.85;11.48;;;4.90;99.20;;;;;;5052123;28;20025;-59
2022/01/24 09:21:16;;;;;;;;;;;;;;;;;;;;;
2022/01/24 09:23:37;;;;;;;16.30;11.32;;;4.90;99.20;;;;;;5051428;28;20045;-59
2022/01/24 09:26:28;;;;;;;16.17;11.05;;;5.00;99.30;;;;;;5052000;28;20063;-59
2022/01/24 09:28:54;;;;;;;16.73;12.18;;;5.00;99.30;;;;;;5043556;28;20124;-59
2022/01/24 09:31:21;;;;;;;16.77;11.50;;;5.00;99.20;;;;;;5053074;28;20111;-59
2022/01/24 09:33:46;;;;;;;14.20;10.77;;;5.00;99.20;;;;;;5053164;28;20078;-59
2022/01/24 09:36:13;;;;;;;14.85;10.52;;;5.10;99.30;;;;;;5053096;28;20025;-59
2022/01/24 09:38:39;;;;;;;14.68;9.95;;;5.10;99.20;;;;;;5061703;28;20021;-59
2022/01/24 09:41:12;;;;;;;19.23;11.98;;;5.10;99.10;;;;;;5073283;28;20468;-59
2022/01/24 09:43:50;;;;;;;15.82;11.10;;;5.10;99.10;;;;;;5055173;28;20032;-58
2022/01/24 09:46:16;;;;;;;15.18;11.50;;;5.10;99.00;;;;;;5072602;28;20021;-59
2022/01/24 09:48:42;;;;;;;17.95;11.40;;;5.10;98.90;;;;;;5072881;28;20031;-59
2022/01/24 09:51:28;;;;;;;15.63;11.27;;;5.10;98.80;;;;;;5072930;28;20052;-60
2022/01/24 09:53:55;;;;;;;15.75;10.65;;;5.10;99.00;;;;;;5054514;28;20542;-59
2022/01/24 09:56:31;;;;;;;16.98;12.18;;;5.00;98.90;;;;;;5054810;28;20024;-59
2022/01/24 09:58:57;;;;;;;17.73;11.93;;;5.10;98.80;;;;;;5072903;28;20021;-59
2022/01/24 10:01:23;;;;;;;16.85;11.63;;;5.00;98.70;;;;;;5072486;28;20031;-59
2022/01/24 10:04:21;;;;;;;17.48;11.98;;;5.00;98.60;;;;;;5072624;28;20021;-59
2022/01/24 10:16:37;;;;;;;16.90;11.73;;;5.20;98.60;;;;;;5072427;28;20389;-59
2022/01/24 10:19:14;;;;;;;18.85;12.70;;;5.20;98.60;;;;;;5051346;28;20025;-59
2022/01/24 10:22:04;;;;;;;15.90;11.43;;;5.20;98.70;;;;;;5071730;28;20392;-59
2022/01/24 10:24:40;;;;;;;14.70;11.88;;;5.20;98.40;;;;;;5053584;28;20069;-59
2022/01/24 10:27:17;;;;;;;14.95;11.88;;;5.20;98.80;;;;;;5072276;28;20036;-58
2022/01/24 10:29:56;;;;;;;14.85;11.63;;;5.20;98.70;;;;;;5068297;28;20492;-59
2022/01/24 10:33:00;;;;;;;17.63;12.30;;;5.20;98.40;;;;;;5063313;28;20036;-59
2022/01/24 10:35:36;;;;;;;15.80;12.05;;;5.30;98.30;;;;;;5051076;28;20432;-59
2022/01/24 10:41:24;;;;;;;15.23;11.55;;;5.30;98.50;;;;;;5065815;28;20036;-59
2022/01/24 10:43:55;;;;;;;17.13;11.95;;;5.30;98.30;;;;;;5065274;28;20111;-59
2022/01/24 10:46:24;;;;;;;14.75;12.35;;;5.40;98.30;;;;;;5052417;28;20081;-59
2022/01/24 10:49:01;;;;;;;16.30;13.18;;;5.40;98.30;;;;;;5070381;28;20044;-59
2022/01/24 10:51:26;;;;;;;15.23;12.05;;;5.50;98.20;;;;;;5052171;28;20041;-59
2022/01/24 10:53:55;;;;;;;16.48;12.35;;;5.50;97.90;;;;;;5074384;28;20031;-59
2022/01/24 10:56:37;;;;;;;14.80;12.57;;;5.50;97.50;;;;;;5070333;28;20020;-59
2022/01/24 10:59:10;;;;;;;14.13;11.68;;;5.50;97.30;;;;;;5070554;28;20021;-59
2022/01/24 11:01:36;;;;;;;17.23;13.52;;;5.50;97.30;;;;;;5057702;28;20075;-60
2022/01/24 11:04:08;;;;;;;13.70;11.55;;;5.50;97.20;;;;;;5068307;28;20008;-60
2022/01/24 11:06:37;;;;;;;15.05;12.57;;;5.50;97.40;;;;;;5058047;28;20528;-59
2022/01/24 11:09:27;;;;;;;15.50;12.88;;;5.50;97.50;;;;;;5049787;28;20020;-60
2022/01/24 11:11:58;;;;;;;15.95;12.10;;;5.50;96.80;;;;;;5039371;28;20032;-59
2022/01/24 11:14:25;;;;;;;;;;;5.50;96.60;;;;;;5070151;28;20020;-59
2022/01/24 11:16:51;;;;;;;13.88;12.38;;;5.40;96.70;;;;;;5052182;28;20341;-59
2022/01/24 11:19:45;;;;;;;18.23;13.35;;;5.50;96.90;;;;;;5072128;28;20039;-59
2022/01/24 11:22:18;;;;;;;14.68;11.85;;;5.50;96.90;;;;;;5080628;28;20040;-59
2022/01/24 11:27:45;;;;;;;12.30;9.23;;;5.70;97.10;;;;;;5070388;28;20035;-59
2022/01/24 11:30:14;;;;;;;12.07;9.30;;;5.80;97.20;;;;;;5063462;28;20097;-59
2022/01/24 11:32:59;;;;;;;18.50;14.10;;;5.80;97.10;;;;;;5084379;28;20089;-59
2022/01/24 11:35:32;;;;;;;16.30;14.60;;;5.90;96.50;;;;;;5054255;28;20033;-59
2022/01/24 11:37:59;;;;;;;17.13;14.65;;;5.80;96.10;;;;;;5072827;28;20036;-60
2022/01/24 11:40:44;;;;;;;17.08;14.18;;;5.70;96.20;;;;;;5071348;28;20575;-60
2022/01/24 11:43:34;;;;;;;17.67;14.52;;;5.70;96.20;;;;;;5069061;28;20020;-59
2022/01/24 11:46:07;;;;;;;18.13;14.32;;;5.80;96.20;;;;;;5053474;28;20032;-59
2022/01/24 11:48:34;;;;;;;13.32;11.10;;;5.80;96.30;;;;;;5044900;28;20092;-59
2022/01/24 11:51:12;;;;;;;12.95;10.00;;;5.80;96.50;;;;;;5054745;28;20109;-59
2022/01/24 11:53:49;;;;;;;10.95;9.07;;;5.90;96.50;;;;;;5062652;28;20020;-59
2022/01/24 11:56:17;;;;;;;16.83;12.55;;;6.00;96.60;;;;;;5050448;28;20116;-59
2022/01/24 11:58:42;;;;;;;16.02;13.70;;;6.00;96.30;;;;;;5071403;28;20025;-59
2022/01/24 12:01:13;;;;;;;15.07;13.30;;;6.00;96.00;;;;;;5068939;28;20025;-59
2022/01/24 12:03:49;;;;;;;14.82;12.43;;;6.00;96.10;;;;;;5066230;28;20074;-59
2022/01/24 12:06:19;;;;;;;13.60;11.82;;;6.10;96.20;;;;;;5068265;28;20013;-59
2022/01/24 12:08:47;;;;;;;14.32;12.02;;;6.00;96.20;;;;;;5071409;28;20031;-59
2022/01/24 12:11:22;;;;;;;14.48;12.82;;;6.10;96.30;;;;;;5056335;28;20136;-59
2022/01/24 12:13:55;;;;;;;16.58;12.55;;;6.10;96.20;;;;;;5054782;28;20456;-59
2022/01/24 12:16:33;;;;;;;14.50;12.10;;;6.10;96.00;;;;;;5071078;28;20087;-59
2022/01/24 12:19:00;;;;;;;14.02;11.52;;;6.10;96.10;;;;;;5063359;28;20024;-59
2022/01/24 12:21:27;;;;;;;13.43;10.15;;;6.10;96.10;;;;;;5061981;28;20499;-59
2022/01/24 12:24:07;;;;;;;10.95;9.52;;;6.20;96.20;;;;;;5071175;28;20019;-59
2022/01/24 12:26:40;;;;;;;10.40;8.77;;;6.30;96.30;;;;;;5053128;28;20025;-60
2022/01/24 12:29:09;;;;;;;10.20;8.77;;;6.30;96.30;;;;;;5067108;28;20290;-60
2022/01/24 12:31:45;;;;;;;10.95;9.52;;;6.40;96.30;;;;;;5072464;28;20535;-60
2022/01/24 12:34:17;;;;;;;15.43;13.52;;;6.40;96.20;;;;;;5065464;28;20116;-59
2022/01/24 12:36:50;;;;;;;15.25;13.65;;;6.40;95.60;;;;;;5071055;28;20073;-59
2022/01/24 12:39:34;;;;;;;16.23;13.48;;;6.40;95.30;;;;;;5072527;28;20027;-59
2022/01/24 12:42:14;;;;;;;15.20;12.95;;;6.30;95.10;;;;;;5054339;28;20104;-60
2022/01/24 12:47:21;;;;;;;15.85;12.27;;;6.10;95.40;;;;;;5072364;28;20484;-60
2022/01/24 12:49:48;;;;;;;12.32;11.00;;;6.10;95.60;;;;;;5032650;28;20028;-60
2022/01/24 12:52:17;;;;;;;15.63;12.07;;;6.20;95.70;;;;;;5072479;28;20013;-60
2022/01/24 12:55:19;;;;;;;15.90;13.30;;;6.30;95.60;;;;;;5054139;28;20111;-60
2022/01/24 12:57:44;;;;;;;15.85;14.15;;;6.30;95.60;;;;;;5045566;28;20036;-60
2022/01/24 13:00:14;;;;;;;17.60;13.50;;;6.30;95.60;;;;;;5050976;28;20029;-60
2022/01/24 13:02:40;;;;;;;15.82;14.13;;;6.20;95.60;;;;;;5052369;28;20550;-60
2022/01/24 13:05:14;;;;;;;14.98;12.13;;;6.30;95.60;;;;;;5052449;28;20044;-60
2022/01/24 13:07:47;;;;;;;12.38;10.82;;;6.30;95.60;;;;;;5067188;28;20500;-59
2022/01/24 13:10:16;;;;;;;14.80;11.40;;;6.40;95.70;;;;;;5050912;28;20108;-59
2022/01/24 13:12:44;;;;;;;14.02;11.38;;;6.40;95.60;;;;;;5053904;28;20491;-59
2022/01/24 13:15:26;;;;;;;13.93;12.07;;;6.50;95.60;;;;;;5070329;28;21259;-59
2022/01/24 13:21:07;;;;;;;16.70;14.23;;;6.50;95.60;;;;;;5066785;28;20059;-59
2022/01/24 13:23:33;;;;;;;16.05;13.40;;;6.50;95.40;;;;;;5070484;28;20024;-59
2022/01/24 13:26:18;;;;;;;13.68;12.15;;;6.50;95.30;;;;;;5069793;28;20028;-59
2022/01/24 13:29:10;;;;;;;16.73;13.68;;;6.50;95.30;;;;;;5047768;28;20032;-59
2022/01/24 13:31:36;;;;;;;18.45;13.65;;;6.50;95.20;;;;;;5070857;28;20097;-59
2022/01/24 13:34:08;;;;;;;17.38;13.23;;;6.30;94.80;;;;;;5054677;28;20477;-59
2022/01/24 13:36:34;;;;;;;15.43;12.75;;;6.20;94.80;;;;;;5051547;28;20024;-59
2022/01/24 13:39:25;;;;;;;12.02;10.55;;;6.30;95.10;;;;;;5072120;28;20569;-59
2022/01/24 13:42:18;;;;;;;10.25;9.15;;;6.40;95.20;;;;;;5060732;28;20056;-59
2022/01/24 13:44:44;;;;;;;10.93;8.57;;;6.50;95.30;;;;;;5053752;28;20032;-59
2022/01/24 13:50:17;;;;;;;11.00;9.70;;;6.60;95.20;;;;;;5067057;28;20013;-59
2022/01/24 13:52:49;;;;;;;9.75;8.73;;;6.70;95.30;;;;;;5071992;28;20516;-59
2022/01/24 13:55:17;;;;;;;16.10;11.15;;;6.80;95.30;;;;;;5061761;28;20033;-59
2022/01/24 13:57:45;;;;;;;11.90;10.65;;;6.80;95.10;;;;;;5045173;28;20086;-59
2022/01/24 14:00:12;;;;;;;13.50;10.45;;;6.80;95.10;;;;;;5071195;28;20016;-59
2022/01/24 14:02:37;;;;;;;13.13;11.00;;;6.80;95.10;;;;;;5047251;28;20021;-59
2022/01/24 14:05:04;;;;;;;12.50;11.15;;;6.80;95.10;;;;;;5071275;28;20027;-59
2022/01/24 14:07:35;;;;;;;12.52;11.20;;;6.80;95.10;;;;;;5070014;28;20016;-59
2022/01/24 14:10:05;;;;;;;15.32;12.98;;;6.90;95.20;;;;;;5058618;28;20377;-59
2022/01/24 14:12:43;;;;;;;;;;;6.90;95.10;;;;;;5064408;28;20020;-59
2022/01/24 14:15:20;;;;;;;15.13;13.45;;;6.80;94.80;;;;;;5047402;28;20265;-59
2022/01/24 14:18:25;;;;;;;14.52;13.02;;;6.70;94.70;;;;;;5070693;28;20089;-59
2022/01/24 14:20:53;;;;;;;16.23;13.63;;;6.70;94.60;;;;;;5061431;28;20029;-59
2022/01/24 14:23:23;;;;;;;13.73;11.85;;;6.60;94.40;;;;;;5071597;28;20361;-59
2022/01/24 14:25:49;;;;;;;17.48;15.35;;;6.70;94.50;;;;;;5053801;28;20503;-59
2022/01/24 14:28:15;;;;;;;18.85;16.00;;;6.60;94.40;;;;;;5071814;28;20067;-59
2022/01/24 14:30:43;;;;;;;19.60;15.82;;;6.60;94.20;;;;;;5050214;28;20057;-59
2022/01/24 14:33:29;;;;;;;15.82;14.07;;;6.50;94.20;;;;;;5046961;28;20075;-59
2022/01/24 14:35:59;;;;;;;17.85;14.70;;;6.60;94.50;;;;;;5071349;28;20067;-59
2022/01/24 14:38:35;;;;;;;18.45;14.77;;;6.60;94.50;;;;;;5071217;28;20040;-59
2022/01/24 14:41:31;;;;;;;14.35;12.40;;;6.60;94.50;;;;;;5071675;28;20021;-59
2022/01/24 14:46:45;;;;;;;20.80;17.70;;;6.50;94.10;;;;;;5067987;28;20494;-58
2022/01/24 14:49:29;;;;;;;23.40;17.90;;;6.40;94.10;;;;;;5059657;28;20167;-59
2022/01/24 14:52:02;;;;;;;20.52;17.80;;;6.40;94.20;;;;;;5070533;28;20029;-59
2022/01/24 14:54:54;;;;;;;19.48;15.90;;;6.40;94.40;;;;;;5075130;28;20024;-59
2022/01/24 14:57:28;;;;;;;20.75;17.10;;;6.50;94.60;;;;;;5057374;28;20039;-59
2022/01/24 15:00:33;;;;;;;22.10;18.10;;;6.50;94.60;;;;;;5075055;28;20032;-59
2022/01/24 15:02:58;;;;;;;20.38;17.77;;;6.60;94.50;;;;;;5069390;28;20403;-59
2022/01/24 15:12:25;;;;;;;22.75;17.17;;;6.50;94.20;;;;;;5063558;28;20031;-58
2022/01/24 15:14:51;;;;;;;18.13;16.10;;;6.50;94.20;;;;;;5033220;28;20095;-59
2022/01/24 15:17:29;;;;;;;20.88;16.20;;;6.40;94.20;;;;;;5071479;28;20442;-59
2022/01/24 15:25:30;;;;;;;21.55;16.67;;;6.30;94.40;;;;;;5039935;28;20031;-59
2022/01/24 15:28:17;;;;;;;19.35;15.25;;;6.30;94.50;;;;;;5045686;28;20024;-59
2022/01/24 15:30:50;;;;;;;17.23;14.77;;;6.30;94.60;;;;;;5073197;28;20040;-59